sensor_id;sensor_type;location;lat;lon;timestamp;pressure;altitude;pressure_sealevel;temperature;humidity
31681;BME280;18281;51.364;9.566;2022-08-01T00:02:06;99935.06;;;16.20;100.00
31681;BME280;18281;51.364;9.566;2022-08-01T00:04:31;99931.44;;;16.33;100.00
31681;BME280;18281;51.364;9.566;2022-08-01T00:06:57;99924.59;;;16.19;100.00
31681;BME280;18281;51.364;9.566;2022-08-01T00:09:22;99930.22;;;16.25;100.00
31681;BME280;18281;51.364;9.566;2022-08-01T00:11:47;99924.66;;;16.40;100.00
31681;BME280;18281;51.364;9.566;2022-08-01T00:14:13;99919.56;;;16.48;100.00
31681;BME280;18281;51.364;9.566;2022-08-01T00:16:38;99924.44;;;16.32;100.00
31681;BME280;18281;51.364;9.566;2022-08-01T00:19:04;99932.78;;;16.16;100.00
31681;BME280;18281;51.364;9.566;2022-08-01T00:21:29;99923.97;;;16.38;100.00
31681;BME280;18281;51.364;9.566;2022-08-01T00:23:55;99921.00;;;16.52;100.00
31681;BME280;18281;51.364;9.566;2022-08-01T00:26:20;99911.09;;;16.66;100.00
31681;BME280;18281;51.364;9.566;2022-08-01T00:28:45;99920.66;;;16.46;100.00
31681;BME280;18281;51.364;9.566;2022-08-01T00:31:11;99929.31;;;16.15;100.00
31681;BME280;18281;51.364;9.566;2022-08-01T00:33:36;99925.72;;;16.05;100.00
31681;BME280;18281;51.364;9.566;2022-08-01T00:36:02;99926.34;;;16.30;100.00
31681;BME280;18281;51.364;9.566;2022-08-01T00:38:27;99925.09;;;16.13;100.00
31681;BME280;18281;51.364;9.566;2022-08-01T00:40:53;99922.41;;;16.24;100.00
31681;BME280;18281;51.364;9.566;2022-08-01T00:43:18;99922.00;;;16.40;100.00
31681;BME280;18281;51.364;9.566;2022-08-01T00:45:44;99923.88;;;16.17;100.00
31681;BME280;18281;51.364;9.566;2022-08-01T00:48:09;99921.72;;;16.22;100.00
31681;BME280;18281;51.364;9.566;2022-08-01T00:50:35;99919.97;;;16.32;100.00
31681;BME280;18281;51.364;9.566;2022-08-01T00:53:01;99910.72;;;16.26;100.00
31681;BME280;18281;51.364;9.566;2022-08-01T00:55:28;99922.59;;;15.77;100.00
31681;BME280;18281;51.364;9.566;2022-08-01T00:57:54;99915.59;;;16.10;100.00
31681;BME280;18281;51.364;9.566;2022-08-01T01:00:19;99923.41;;;16.00;100.00
31681;BME280;18281;51.364;9.566;2022-08-01T01:02:45;99912.94;;;16.10;100.00
31681;BME280;18281;51.364;9.566;2022-08-01T01:05:10;99911.59;;;16.16;100.00
31681;BME280;18281;51.364;9.566;2022-08-01T01:08:08;99915.59;;;16.10;100.00
31681;BME280;18281;51.364;9.566;2022-08-01T01:10:43;99904.41;;;16.39;100.00
31681;BME280;18281;51.364;9.566;2022-08-01T01:13:43;99898.50;;;16.47;100.00
31681;BME280;18281;51.364;9.566;2022-08-01T01:16:15;99912.63;;;16.36;100.00
31681;BME280;18281;51.364;9.566;2022-08-01T01:18:47;99914.50;;;16.13;100.00
31681;BME280;18281;51.364;9.566;2022-08-01T01:27:21;99922.94;;;16.06;100.00
31681;BME280;18281;51.364;9.566;2022-08-01T01:29:54;99914.47;;;16.24;100.00
31681;BME280;18281;51.364;9.566;2022-08-01T01:32:28;99910.78;;;16.15;100.00
31681;BME280;18281;51.364;9.566;2022-08-01T01:34:58;99916.78;;;16.17;100.00
31681;BME280;18281;51.364;9.566;2022-08-01T01:37:29;99923.31;;;15.90;100.00
31681;BME280;18281;51.364;9.566;2022-08-01T01:39:56;99928.34;;;15.93;100.00
31681;BME280;18281;51.364;9.566;2022-08-01T01:42:25;99923.28;;;16.13;100.00
31681;BME280;18281;51.364;9.566;2022-08-01T01:44:52;99921.72;;;16.22;100.00
31681;BME280;18281;51.364;9.566;2022-08-01T01:47:18;99927.53;;;15.93;100.00
31681;BME280;18281;51.364;9.566;2022-08-01T01:49:45;99928.09;;;16.08;100.00
31681;BME280;18281;51.364;9.566;2022-08-01T01:52:13;99928.00;;;15.87;100.00
31681;BME280;18281;51.364;9.566;2022-08-01T01:54:45;99932.56;;;15.96;100.00
31681;BME280;18281;51.364;9.566;2022-08-01T01:57:13;99926.28;;;16.20;100.00
31681;BME280;18281;51.364;9.566;2022-08-01T01:59:40;99924.06;;;15.92;100.00
31681;BME280;18281;51.364;9.566;2022-08-01T02:02:07;99919.09;;;15.99;100.00
31681;BME280;18281;51.364;9.566;2022-08-01T02:04:40;99918.19;;;16.21;100.00
31681;BME280;18281;51.364;9.566;2022-08-01T02:07:09;99919.44;;;16.06;100.00
31681;BME280;18281;51.364;9.566;2022-08-01T02:09:37;99914.38;;;16.14;100.00
31681;BME280;18281;51.364;9.566;2022-08-01T02:12:03;99907.59;;;16.21;100.00
31681;BME280;18281;51.364;9.566;2022-08-01T02:14:32;99915.31;;;16.24;100.00
31681;BME280;18281;51.364;9.566;2022-08-01T02:16:58;99911.63;;;15.93;100.00
31681;BME280;18281;51.364;9.566;2022-08-01T02:19:25;99915.03;;;15.95;100.00
31681;BME280;18281;51.364;9.566;2022-08-01T02:27:50;99933.78;;;15.92;100.00
31681;BME280;18281;51.364;9.566;2022-08-01T02:30:17;99923.41;;;16.12;100.00
31681;BME280;18281;51.364;9.566;2022-08-01T02:32:48;99919.44;;;16.06;100.00
31681;BME280;18281;51.364;9.566;2022-08-01T02:35:23;99917.50;;;16.08;100.00
31681;BME280;18281;51.364;9.566;2022-08-01T02:37:51;99928.75;;;15.89;100.00
31681;BME280;18281;51.364;9.566;2022-08-01T02:40:18;99932.22;;;15.89;100.00
31681;BME280;18281;51.364;9.566;2022-08-01T02:42:48;99923.63;;;16.20;100.00
31681;BME280;18281;51.364;9.566;2022-08-01T02:45:14;99930.78;;;15.97;100.00
31681;BME280;18281;51.364;9.566;2022-08-01T02:47:42;99924.78;;;15.83;100.00
31681;BME280;18281;51.364;9.566;2022-08-01T02:50:10;99928.50;;;15.81;100.00
31681;BME280;18281;51.364;9.566;2022-08-01T02:52:37;99927.78;;;15.90;100.00
31681;BME280;18281;51.364;9.566;2022-08-01T02:55:05;99927.66;;;15.80;100.00
31681;BME280;18281;51.364;9.566;2022-08-01T02:57:32;99920.69;;;15.79;100.00
31681;BME280;18281;51.364;9.566;2022-08-01T02:59:59;99925.47;;;15.85;100.00
31681;BME280;18281;51.364;9.566;2022-08-01T03:02:26;99930.91;;;15.84;100.00
31681;BME280;18281;51.364;9.566;2022-08-01T03:04:52;99932.50;;;15.75;100.00
31681;BME280;18281;51.364;9.566;2022-08-01T03:07:19;99923.78;;;15.84;100.00
31681;BME280;18281;51.364;9.566;2022-08-01T03:09:46;99929.09;;;15.73;100.00
31681;BME280;18281;51.364;9.566;2022-08-01T03:12:16;99927.66;;;15.80;100.00
31681;BME280;18281;51.364;9.566;2022-08-01T03:14:43;99924.16;;;15.91;100.00
31681;BME280;18281;51.364;9.566;2022-08-01T03:17:10;99914.03;;;15.96;100.00
31681;BME280;18281;51.364;9.566;2022-08-01T03:19:38;99923.44;;;15.77;100.00
31681;BME280;18281;51.364;9.566;2022-08-01T03:22:06;99914.53;;;15.90;100.00
31681;BME280;18281;51.364;9.566;2022-08-01T03:24:34;99919.19;;;16.09;100.00
31681;BME280;18281;51.364;9.566;2022-08-01T03:27:02;99913.69;;;16.01;100.00
31681;BME280;18281;51.364;9.566;2022-08-01T03:29:29;99914.63;;;16.00;100.00
31681;BME280;18281;51.364;9.566;2022-08-01T03:31:57;99917.53;;;15.97;100.00
31681;BME280;18281;51.364;9.566;2022-08-01T03:34:29;99912.47;;;15.93;100.00
31681;BME280;18281;51.364;9.566;2022-08-01T03:37:09;99918.63;;;15.94;100.00
31681;BME280;18281;51.364;9.566;2022-08-01T03:39:47;99930.06;;;15.83;100.00
31681;BME280;18281;51.364;9.566;2022-08-01T03:42:18;99933.41;;;15.85;100.00
31681;BME280;18281;51.364;9.566;2022-08-01T03:44:54;99930.03;;;16.06;100.00
31681;BME280;18281;51.364;9.566;2022-08-01T03:47:25;99937.53;;;15.78;100.00
31681;BME280;18281;51.364;9.566;2022-08-01T03:49:51;99938.47;;;15.77;100.00
31681;BME280;18281;51.364;9.566;2022-08-01T03:52:20;99932.34;;;15.99;100.00
31681;BME280;18281;51.364;9.566;2022-08-01T03:54:49;99941.25;;;15.87;100.00
31681;BME280;18281;51.364;9.566;2022-08-01T03:57:17;99937.63;;;15.88;100.00
31681;BME280;18281;51.364;9.566;2022-08-01T03:59:43;99951.56;;;15.67;100.00
31681;BME280;18281;51.364;9.566;2022-08-01T04:02:09;99956.13;;;15.54;100.00
31681;BME280;18281;51.364;9.566;2022-08-01T04:04:35;99952.72;;;15.29;100.00
31681;BME280;18281;51.364;9.566;2022-08-01T04:07:01;99937.66;;;15.76;100.00
31681;BME280;18281;51.364;9.566;2022-08-01T04:09:32;99942.69;;;15.68;100.00
31681;BME280;18281;51.364;9.566;2022-08-01T04:11:59;99948.47;;;15.85;100.00
31681;BME280;18281;51.364;9.566;2022-08-01T04:14:26;99950.53;;;15.70;100.00
31681;BME280;18281;51.364;9.566;2022-08-01T04:16:52;99952.88;;;15.39;100.00
31681;BME280;18281;51.364;9.566;2022-08-01T04:19:17;99960.81;;;15.50;100.00
31681;BME280;18281;51.364;9.566;2022-08-01T04:21:43;99956.97;;;15.43;100.00
31681;BME280;18281;51.364;9.566;2022-08-01T04:24:12;99973.13;;;14.80;100.00
31681;BME280;18281;51.364;9.566;2022-08-01T04:26:39;99967.56;;;15.43;100.00
31681;BME280;18281;51.364;9.566;2022-08-01T04:29:08;99965.63;;;15.45;100.00
31681;BME280;18281;51.364;9.566;2022-08-01T04:31:35;99972.22;;;15.39;100.00
31681;BME280;18281;51.364;9.566;2022-08-01T04:34:03;99978.16;;;15.07;100.00
31681;BME280;18281;51.364;9.566;2022-08-01T04:36:33;99986.47;;;15.14;100.00
31681;BME280;18281;51.364;9.566;2022-08-01T04:39:01;99985.03;;;14.62;100.00
31681;BME280;18281;51.364;9.566;2022-08-01T04:41:27;99993.22;;;14.83;100.00
31681;BME280;18281;51.364;9.566;2022-08-01T04:43:54;99995.38;;;14.65;100.00
31681;BME280;18281;51.364;9.566;2022-08-01T04:46:21;100007.28;;;14.70;100.00
31681;BME280;18281;51.364;9.566;2022-08-01T04:48:47;100001.94;;;15.07;100.00
31681;BME280;18281;51.364;9.566;2022-08-01T04:51:15;99996.75;;;14.95;100.00
31681;BME280;18281;51.364;9.566;2022-08-01T04:53:41;100010.72;;;14.59;100.00
31681;BME280;18281;51.364;9.566;2022-08-01T04:56:07;100004.44;;;14.98;100.00
31681;BME280;18281;51.364;9.566;2022-08-01T04:58:33;100004.69;;;14.95;100.00
31681;BME280;18281;51.364;9.566;2022-08-01T05:01:00;100004.19;;;14.89;100.00
31681;BME280;18281;51.364;9.566;2022-08-01T05:03:25;99994.53;;;15.13;100.00
31681;BME280;18281;51.364;9.566;2022-08-01T05:05:50;99993.97;;;15.32;100.00
31681;BME280;18281;51.364;9.566;2022-08-01T05:08:16;100001.25;;;15.05;100.00
31681;BME280;18281;51.364;9.566;2022-08-01T05:10:42;100001.31;;;15.39;100.00
31681;BME280;18281;51.364;9.566;2022-08-01T05:13:08;100006.91;;;15.12;100.00
31681;BME280;18281;51.364;9.566;2022-08-01T05:15:35;100004.47;;;15.09;100.00
31681;BME280;18281;51.364;9.566;2022-08-01T05:18:01;100010.28;;;14.90;100.00
31681;BME280;18281;51.364;9.566;2022-08-01T05:20:27;100012.41;;;15.09;100.00
31681;BME280;18281;51.364;9.566;2022-08-01T05:22:52;100028.28;;;14.85;100.00
31681;BME280;18281;51.364;9.566;2022-08-01T05:25:18;100021.09;;;15.22;100.00
31681;BME280;18281;51.364;9.566;2022-08-01T05:27:43;100021.94;;;14.87;100.00
31681;BME280;18281;51.364;9.566;2022-08-01T05:30:09;100033.25;;;14.89;100.00
31681;BME280;18281;51.364;9.566;2022-08-01T05:32:34;100021.34;;;15.19;100.00
31681;BME280;18281;51.364;9.566;2022-08-01T05:35:00;100026.00;;;15.04;100.00
31681;BME280;18281;51.364;9.566;2022-08-01T05:37:25;100026.25;;;15.13;100.00
31681;BME280;18281;51.364;9.566;2022-08-01T05:39:50;100027.50;;;14.96;100.00
31681;BME280;18281;51.364;9.566;2022-08-01T05:42:16;100031.66;;;15.11;100.00
31681;BME280;18281;51.364;9.566;2022-08-01T05:44:41;100017.56;;;15.46;100.00
31681;BME280;18281;51.364;9.566;2022-08-01T05:47:06;100009.59;;;15.70;100.00
31681;BME280;18281;51.364;9.566;2022-08-01T05:49:32;100018.81;;;15.65;100.00
31681;BME280;18281;51.364;9.566;2022-08-01T05:51:57;100034.72;;;14.93;100.00
31681;BME280;18281;51.364;9.566;2022-08-01T05:54:23;100036.06;;;15.35;100.00
31681;BME280;18281;51.364;9.566;2022-08-01T05:56:48;100033.53;;;15.33;100.00
31681;BME280;18281;51.364;9.566;2022-08-01T05:59:13;100027.78;;;15.51;100.00
31681;BME280;18281;51.364;9.566;2022-08-01T06:01:39;100015.91;;;15.56;100.00
31681;BME280;18281;51.364;9.566;2022-08-01T06:04:04;100019.34;;;15.92;100.00
31681;BME280;18281;51.364;9.566;2022-08-01T06:06:29;100009.72;;;16.14;100.00
31681;BME280;18281;51.364;9.566;2022-08-01T06:08:55;100006.56;;;16.20;100.00
31681;BME280;18281;51.364;9.566;2022-08-01T06:11:20;100017.16;;;15.98;100.00
31681;BME280;18281;51.364;9.566;2022-08-01T06:13:46;100017.28;;;16.19;100.00
31681;BME280;18281;51.364;9.566;2022-08-01T06:16:11;100010.91;;;16.21;100.00
31681;BME280;18281;51.364;9.566;2022-08-01T06:18:36;100011.66;;;16.01;100.00
31681;BME280;18281;51.364;9.566;2022-08-01T06:21:02;100033.91;;;15.75;100.00
31681;BME280;18281;51.364;9.566;2022-08-01T06:23:27;100045.25;;;15.53;100.00
31681;BME280;18281;51.364;9.566;2022-08-01T06:25:53;100044.16;;;15.56;100.00
31681;BME280;18281;51.364;9.566;2022-08-01T06:28:23;100048.00;;;15.52;100.00
31681;BME280;18281;51.364;9.566;2022-08-01T06:30:48;100058.97;;;15.58;100.00
31681;BME280;18281;51.364;9.566;2022-08-01T06:33:14;100051.19;;;15.68;100.00
31681;BME280;18281;51.364;9.566;2022-08-01T06:35:39;100051.84;;;15.95;100.00
31681;BME280;18281;51.364;9.566;2022-08-01T06:38:04;100039.69;;;16.15;100.00
31681;BME280;18281;51.364;9.566;2022-08-01T06:40:30;100035.69;;;16.20;100.00
31681;BME280;18281;51.364;9.566;2022-08-01T06:42:55;100048.13;;;15.86;100.00
31681;BME280;18281;51.364;9.566;2022-08-01T06:45:20;100054.97;;;16.00;100.00
31681;BME280;18281;51.364;9.566;2022-08-01T06:47:51;100053.50;;;15.84;100.00
31681;BME280;18281;51.364;9.566;2022-08-01T06:50:16;100048.00;;;15.87;100.00
31681;BME280;18281;51.364;9.566;2022-08-01T06:52:41;100049.78;;;15.75;100.00
31681;BME280;18281;51.364;9.566;2022-08-01T06:55:07;100053.09;;;15.66;100.00
31681;BME280;18281;51.364;9.566;2022-08-01T06:57:33;100046.31;;;16.09;100.00
31681;BME280;18281;51.364;9.566;2022-08-01T07:00:06;100048.47;;;16.04;100.00
31681;BME280;18281;51.364;9.566;2022-08-01T07:02:36;100060.03;;;16.03;100.00
31681;BME280;18281;51.364;9.566;2022-08-01T07:05:02;100059.75;;;15.72;100.00
31681;BME280;18281;51.364;9.566;2022-08-01T07:07:29;100067.22;;;15.78;100.00
31681;BME280;18281;51.364;9.566;2022-08-01T07:09:55;100061.94;;;15.78;100.00
31681;BME280;18281;51.364;9.566;2022-08-01T07:12:20;100064.38;;;15.92;100.00
31681;BME280;18281;51.364;9.566;2022-08-01T07:14:45;100048.13;;;16.08;100.00
31681;BME280;18281;51.364;9.566;2022-08-01T07:17:11;100047.50;;;15.82;100.00
31681;BME280;18281;51.364;9.566;2022-08-01T07:19:36;100052.09;;;15.56;100.00
31681;BME280;18281;51.364;9.566;2022-08-01T07:22:02;100056.41;;;15.70;100.00
31681;BME280;18281;51.364;9.566;2022-08-01T07:24:27;100052.56;;;16.08;100.00
31681;BME280;18281;51.364;9.566;2022-08-01T07:26:54;100049.91;;;16.08;100.00
31681;BME280;18281;51.364;9.566;2022-08-01T07:29:23;100057.97;;;15.84;100.00
31681;BME280;18281;51.364;9.566;2022-08-01T07:31:53;100050.78;;;16.08;100.00
31681;BME280;18281;51.364;9.566;2022-08-01T07:34:18;100055.94;;;15.87;100.00
31681;BME280;18281;51.364;9.566;2022-08-01T07:36:44;100055.81;;;16.23;100.00
31681;BME280;18281;51.364;9.566;2022-08-01T07:39:09;100064.09;;;15.84;100.00
31681;BME280;18281;51.364;9.566;2022-08-01T07:41:34;100065.69;;;15.51;100.00
31681;BME280;18281;51.364;9.566;2022-08-01T07:44:00;100064.59;;;15.89;100.00
31681;BME280;18281;51.364;9.566;2022-08-01T07:46:25;100065.56;;;15.88;100.00
31681;BME280;18281;51.364;9.566;2022-08-01T07:48:51;100066.03;;;16.16;100.00
31681;BME280;18281;51.364;9.566;2022-08-01T07:51:16;100071.00;;;15.63;100.00
31681;BME280;18281;51.364;9.566;2022-08-01T07:53:41;100063.97;;;15.74;100.00
31681;BME280;18281;51.364;9.566;2022-08-01T07:56:07;100058.09;;;16.16;100.00
31681;BME280;18281;51.364;9.566;2022-08-01T07:58:33;100063.88;;;15.87;100.00
31681;BME280;18281;51.364;9.566;2022-08-01T08:00:59;100058.09;;;15.93;100.00
31681;BME280;18281;51.364;9.566;2022-08-01T08:03:24;100067.97;;;16.03;100.00
31681;BME280;18281;51.364;9.566;2022-08-01T08:05:50;100059.19;;;16.48;100.00
31681;BME280;18281;51.364;9.566;2022-08-01T08:08:15;100063.03;;;16.43;100.00
31681;BME280;18281;51.364;9.566;2022-08-01T08:10:43;100057.34;;;16.71;100.00
31681;BME280;18281;51.364;9.566;2022-08-01T08:13:09;100063.50;;;16.71;100.00
31681;BME280;18281;51.364;9.566;2022-08-01T08:15:34;100063.91;;;16.55;100.00
31681;BME280;18281;51.364;9.566;2022-08-01T08:17:59;100078.31;;;16.40;100.00
31681;BME280;18281;51.364;9.566;2022-08-01T08:20:25;100075.44;;;16.43;100.00
31681;BME280;18281;51.364;9.566;2022-08-01T08:22:52;100088.47;;;16.23;100.00
31681;BME280;18281;51.364;9.566;2022-08-01T08:25:18;100081.72;;;16.53;100.00
31681;BME280;18281;51.364;9.566;2022-08-01T08:27:47;100080.03;;;16.41;100.00
31681;BME280;18281;51.364;9.566;2022-08-01T08:30:12;100083.03;;;16.48;100.00
31681;BME280;18281;51.364;9.566;2022-08-01T08:32:39;100096.34;;;15.89;100.00
31681;BME280;18281;51.364;9.566;2022-08-01T08:35:06;100088.81;;;16.07;100.00
31681;BME280;18281;51.364;9.566;2022-08-01T08:37:32;100094.47;;;16.37;100.00
31681;BME280;18281;51.364;9.566;2022-08-01T08:39:57;100089.41;;;16.56;100.00
31681;BME280;18281;51.364;9.566;2022-08-01T08:42:23;100090.13;;;16.02;100.00
31681;BME280;18281;51.364;9.566;2022-08-01T08:44:48;100090.38;;;16.33;100.00
31681;BME280;18281;51.364;9.566;2022-08-01T08:47:15;100088.69;;;16.20;100.00
31681;BME280;18281;51.364;9.566;2022-08-01T08:49:42;100087.13;;;16.52;100.00
31681;BME280;18281;51.364;9.566;2022-08-01T08:52:09;100091.38;;;16.54;100.00
31681;BME280;18281;51.364;9.566;2022-08-01T08:54:37;100087.63;;;16.34;100.00
31681;BME280;18281;51.364;9.566;2022-08-01T08:57:02;100085.44;;;16.51;100.00
31681;BME280;18281;51.364;9.566;2022-08-01T08:59:28;100092.69;;;16.60;100.00
31681;BME280;18281;51.364;9.566;2022-08-01T09:01:54;100091.84;;;16.37;100.00
31681;BME280;18281;51.364;9.566;2022-08-01T09:04:21;100090.50;;;16.31;100.00
31681;BME280;18281;51.364;9.566;2022-08-01T09:06:48;100094.34;;;16.38;100.00
31681;BME280;18281;51.364;9.566;2022-08-01T09:09:13;100095.44;;;16.58;100.00
31681;BME280;18281;51.364;9.566;2022-08-01T09:11:39;100088.91;;;16.85;100.00
31681;BME280;18281;51.364;9.566;2022-08-01T09:14:16;100091.50;;;16.97;100.00
31681;BME280;18281;51.364;9.566;2022-08-01T09:17:19;100091.94;;;16.69;100.00
31681;BME280;18281;51.364;9.566;2022-08-01T09:19:47;100084.69;;;17.15;100.00
31681;BME280;18281;51.364;9.566;2022-08-01T09:22:15;100083.25;;;17.22;100.00
31681;BME280;18281;51.364;9.566;2022-08-01T09:27:23;100073.00;;;18.02;100.00
31681;BME280;18281;51.364;9.566;2022-08-01T09:29:51;100073.97;;;18.22;100.00
31681;BME280;18281;51.364;9.566;2022-08-01T09:32:18;100074.72;;;18.34;100.00
31681;BME280;18281;51.364;9.566;2022-08-01T09:34:44;100062.53;;;18.01;100.00
31681;BME280;18281;51.364;9.566;2022-08-01T09:37:11;100069.16;;;17.85;100.00
31681;BME280;18281;51.364;9.566;2022-08-01T09:39:37;100070.34;;;18.02;100.00
31681;BME280;18281;51.364;9.566;2022-08-01T09:42:24;100065.78;;;17.83;100.00
31681;BME280;18281;51.364;9.566;2022-08-01T09:47:16;100084.97;;;17.66;100.00
31681;BME280;18281;51.364;9.566;2022-08-01T09:49:53;100072.50;;;18.08;100.00
31681;BME280;18281;51.364;9.566;2022-08-01T09:52:21;100077.38;;;17.82;100.00
31681;BME280;18281;51.364;9.566;2022-08-01T09:55:02;100076.25;;;18.06;100.00
31681;BME280;18281;51.364;9.566;2022-08-01T09:57:28;100076.16;;;17.86;100.00
31681;BME280;18281;51.364;9.566;2022-08-01T09:59:57;100071.16;;;18.14;100.00
31681;BME280;18281;51.364;9.566;2022-08-01T10:02:28;100065.75;;;18.04;100.00
31681;BME280;18281;51.364;9.566;2022-08-01T10:04:53;100072.78;;;18.36;100.00
31681;BME280;18281;51.364;9.566;2022-08-01T10:07:20;100069.44;;;18.44;100.00
31681;BME280;18281;51.364;9.566;2022-08-01T10:09:46;100062.53;;;18.82;100.00
31681;BME280;18281;51.364;9.566;2022-08-01T10:12:20;100069.19;;;18.57;100.00
31681;BME280;18281;51.364;9.566;2022-08-01T10:14:51;100076.88;;;18.50;100.00
31681;BME280;18281;51.364;9.566;2022-08-01T10:17:20;100075.03;;;18.51;100.00
31681;BME280;18281;51.364;9.566;2022-08-01T10:19:46;100075.94;;;18.20;100.00
31681;BME280;18281;51.364;9.566;2022-08-01T10:22:13;100078.59;;;18.20;100.00
31681;BME280;18281;51.364;9.566;2022-08-01T10:24:43;100077.59;;;18.21;100.00
31681;BME280;18281;51.364;9.566;2022-08-01T10:27:10;100078.63;;;18.30;100.00
31681;BME280;18281;51.364;9.566;2022-08-01T10:29:40;100062.31;;;18.54;100.00
31681;BME280;18281;51.364;9.566;2022-08-01T10:32:07;100063.69;;;18.89;99.40
31681;BME280;18281;51.364;9.566;2022-08-01T10:34:35;100057.22;;;19.31;98.90
31681;BME280;18281;51.364;9.566;2022-08-01T10:37:01;100056.09;;;18.85;99.40
31681;BME280;18281;51.364;9.566;2022-08-01T10:39:28;100056.97;;;19.05;100.00
31681;BME280;18281;51.364;9.566;2022-08-01T10:41:55;100059.75;;;19.52;98.20
31681;BME280;18281;51.364;9.566;2022-08-01T10:44:21;100056.69;;;19.27;98.14
31681;BME280;18281;51.364;9.566;2022-08-01T10:46:50;100048.13;;;19.53;96.65
31681;BME280;18281;51.364;9.566;2022-08-01T10:49:19;100062.69;;;19.00;96.50
31681;BME280;18281;51.364;9.566;2022-08-01T10:51:47;100076.34;;;18.56;96.43
31681;BME280;18281;51.364;9.566;2022-08-01T10:54:13;100078.34;;;18.33;98.07
31681;BME280;18281;51.364;9.566;2022-08-01T10:56:46;100076.50;;;18.74;99.49
31681;BME280;18281;51.364;9.566;2022-08-01T10:59:21;100072.53;;;18.49;100.00
31681;BME280;18281;51.364;9.566;2022-08-01T11:02:01;100075.59;;;18.45;98.79
31681;BME280;18281;51.364;9.566;2022-08-01T11:04:54;100067.84;;;18.82;98.94
31681;BME280;18281;51.364;9.566;2022-08-01T11:10:22;100076.13;;;18.79;96.05
31681;BME280;18281;51.364;9.566;2022-08-01T11:12:49;100068.88;;;19.01;94.34
31681;BME280;18281;51.364;9.566;2022-08-01T11:17:44;100060.16;;;19.67;91.98
31681;BME280;18281;51.364;9.566;2022-08-01T11:20:13;100061.94;;;19.86;93.07
31681;BME280;18281;51.364;9.566;2022-08-01T11:25:28;100051.19;;;20.16;90.57
31681;BME280;18281;51.364;9.566;2022-08-01T11:30:48;100052.72;;;19.51;90.38
31681;BME280;18281;51.364;9.566;2022-08-01T11:33:17;100064.09;;;19.73;90.97
31681;BME280;18281;51.364;9.566;2022-08-01T11:38:44;100057.34;;;19.79;89.52
31681;BME280;18281;51.364;9.566;2022-08-01T11:47:06;100054.81;;;19.77;88.39
31681;BME280;18281;51.364;9.566;2022-08-01T11:54:51;100052.72;;;20.46;86.79
31681;BME280;18281;51.364;9.566;2022-08-01T11:57:19;100047.53;;;21.26;84.84
31681;BME280;18281;51.364;9.566;2022-08-01T11:59:47;100061.59;;;20.65;85.34
31681;BME280;18281;51.364;9.566;2022-08-01T12:02:24;100064.34;;;20.73;85.10
31681;BME280;18281;51.364;9.566;2022-08-01T12:04:53;100051.50;;;21.40;83.94
31681;BME280;18281;51.364;9.566;2022-08-01T12:07:19;100047.09;;;20.95;81.70
31681;BME280;18281;51.364;9.566;2022-08-01T12:09:45;100050.97;;;20.83;81.05
31681;BME280;18281;51.364;9.566;2022-08-01T12:12:14;100048.75;;;20.60;81.27
31681;BME280;18281;51.364;9.566;2022-08-01T12:14:42;100049.63;;;20.51;80.95
31681;BME280;18281;51.364;9.566;2022-08-01T12:17:08;100032.53;;;20.89;81.31
31681;BME280;18281;51.364;9.566;2022-08-01T12:19:33;100039.50;;;21.45;80.59
31681;BME280;18281;51.364;9.566;2022-08-01T12:22:14;100041.06;;;20.75;83.72
31681;BME280;18281;51.364;9.566;2022-08-01T12:24:41;100045.66;;;20.27;84.38
31681;BME280;18281;51.364;9.566;2022-08-01T12:27:08;100047.84;;;20.69;84.10
31681;BME280;18281;51.364;9.566;2022-08-01T12:29:36;100041.28;;;20.82;83.48
31681;BME280;18281;51.364;9.566;2022-08-01T12:32:03;100056.13;;;20.38;84.60
31681;BME280;18281;51.364;9.566;2022-08-01T12:34:29;100041.91;;;20.48;85.27
31681;BME280;18281;51.364;9.566;2022-08-01T12:36:57;100050.50;;;20.87;84.17
31681;BME280;18281;51.364;9.566;2022-08-01T12:39:30;100041.81;;;21.21;83.60
31681;BME280;18281;51.364;9.566;2022-08-01T12:41:56;100049.25;;;20.64;81.46
31681;BME280;18281;51.364;9.566;2022-08-01T12:44:22;100056.78;;;20.50;83.41
31681;BME280;18281;51.364;9.566;2022-08-01T12:46:47;100071.78;;;20.51;83.67
31681;BME280;18281;51.364;9.566;2022-08-01T12:49:13;100082.41;;;20.23;84.68
31681;BME280;18281;51.364;9.566;2022-08-01T12:51:41;100077.97;;;19.67;86.25
31681;BME280;18281;51.364;9.566;2022-08-01T12:54:06;100082.66;;;19.92;86.44
31681;BME280;18281;51.364;9.566;2022-08-01T12:56:35;100085.31;;;20.02;86.68
31681;BME280;18281;51.364;9.566;2022-08-01T12:59:01;100082.81;;;20.29;87.84
31681;BME280;18281;51.364;9.566;2022-08-01T13:01:28;100086.03;;;19.95;89.20
31681;BME280;18281;51.364;9.566;2022-08-01T13:03:59;100086.16;;;20.03;89.13
31681;BME280;18281;51.364;9.566;2022-08-01T13:06:28;100083.41;;;19.75;89.28
31681;BME280;18281;51.364;9.566;2022-08-01T13:08:53;100084.66;;;19.81;88.61
31681;BME280;18281;51.364;9.566;2022-08-01T13:11:19;100087.13;;;20.02;88.68
31681;BME280;18281;51.364;9.566;2022-08-01T13:13:47;100088.28;;;19.89;89.03
31681;BME280;18281;51.364;9.566;2022-08-01T13:16:13;100087.78;;;19.66;89.40
31681;BME280;18281;51.364;9.566;2022-08-01T13:18:39;100086.94;;;19.36;91.13
31681;BME280;18281;51.364;9.566;2022-08-01T13:23:38;100089.19;;;19.41;91.17
31681;BME280;18281;51.364;9.566;2022-08-01T13:26:04;100089.56;;;19.85;90.30
31681;BME280;18281;51.364;9.566;2022-08-01T13:28:31;100092.56;;;19.63;90.11
31681;BME280;18281;51.364;9.566;2022-08-01T13:31:02;100091.97;;;19.49;90.32
31681;BME280;18281;51.364;9.566;2022-08-01T13:33:45;100092.81;;;19.59;90.65